Time;durP1;ratioP1;P1;durP2;ratioP2;P2;SDS_P1;SDS_P2;PMS_P1;PMS_P2;Temp;Humidity;BMP_temperature;BMP_pressure;BME280_temperature;BME280_humidity;BME280_pressure;Samples;Min_cycle;Max_cycle;Signal;HPM_P1;HPM_P2
2022/05/10 00:02:15;;;;;;;14.15;8.25;;;;;;;;;;6228146;23;20573;-88
2022/05/10 00:05:22;;;;;;;13.40;8.85;;;;;;;;;;6210709;23;20187;-89
2022/05/10 00:08:28;;;;;;;15.50;8.30;;;;;;;;;;6228906;23;20163;-87
2022/05/10 00:11:33;;;;;;;15.38;8.98;;;;;;;;;;6228874;23;20171;-88
2022/05/10 00:14:39;;;;;;;14.57;8.50;;;;;;;;;;6227639;23;20254;-88
2022/05/10 00:17:44;;;;;;;15.20;8.85;;;;;;;;;;6228352;23;20224;-87
2022/05/10 00:20:50;;;;;;;17.98;8.43;;;;;;;;;;6227479;23;20171;-87
2022/05/10 00:23:56;;;;;;;18.67;9.02;;;;;;;;;;6227411;23;20167;-88
2022/05/10 00:27:01;;;;;;;15.30;8.57;;;;;;;;;;6229250;23;20167;-89
2022/05/10 00:30:08;;;;;;;13.80;8.60;;;;;;;;;;6229371;23;20163;-88
2022/05/10 00:33:17;;;;;;;11.55;8.18;;;;;;;;;;6229499;23;20168;-88
2022/05/10 00:36:25;;;;;;;15.73;8.25;;;;;;;;;;6228151;23;20167;-89
2022/05/10 00:39:32;;;;;;;15.65;8.07;;;;;;;;;;6228242;23;20171;-88
2022/05/10 00:42:39;;;;;;;13.00;7.97;;;;;;;;;;6211123;23;20583;-88
2022/05/10 00:45:47;;;;;;;15.90;8.48;;;;;;;;;;6227858;23;20163;-88
2022/05/10 00:48:54;;;;;;;15.25;8.68;;;;;;;;;;6229609;23;20171;-87
2022/05/10 00:52:02;;;;;;;17.42;9.95;;;;;;;;;;6227656;23;20175;-88
2022/05/10 00:55:12;;;;;;;12.93;8.95;;;;;;;;;;6209988;23;20175;-88
2022/05/10 00:58:23;;;;;;;19.65;9.30;;;;;;;;;;6202515;23;20537;-88
2022/05/10 01:01:31;;;;;;;15.90;8.73;;;;;;;;;;6228786;22;20171;-88
2022/05/10 01:04:39;;;;;;;13.70;8.65;;;;;;;;;;6210326;23;20182;-88
2022/05/10 01:07:49;;;;;;;13.88;8.77;;;;;;;;;;6228076;23;20171;-88
2022/05/10 01:10:57;;;;;;;14.20;8.20;;;;;;;;;;6227016;23;20199;-90
2022/05/10 01:14:06;;;;;;;18.77;9.32;;;;;;;;;;6227098;23;20228;-88
2022/05/10 01:17:11;;;;;;;16.60;8.70;;;;;;;;;;6226462;23;20618;-89
2022/05/10 01:20:18;;;;;;;14.82;9.20;;;;;;;;;;6227570;23;20159;-89
2022/05/10 01:23:39;;;;;;;16.35;9.30;;;;;;;;;;6209567;23;20311;-88
2022/05/10 01:26:51;;;;;;;16.73;9.57;;;;;;;;;;6212436;23;20224;-88
2022/05/10 01:30:00;;;;;;;14.80;9.45;;;;;;;;;;6230663;23;20495;-89
2022/05/10 01:33:30;;;;;;;22.88;10.07;;;;;;;;;;6212611;23;20168;-89
2022/05/10 01:36:39;;;;;;;20.05;10.35;;;;;;;;;;6211403;23;20203;-89
2022/05/10 01:39:45;;;;;;;20.33;10.13;;;;;;;;;;6213104;23;20236;-87
2022/05/10 01:42:53;;;;;;;20.33;10.25;;;;;;;;;;6211981;23;20199;-88
2022/05/10 01:46:02;;;;;;;17.15;9.95;;;;;;;;;;6210329;23;20163;-88
2022/05/10 01:49:13;;;;;;;15.15;9.45;;;;;;;;;;6228666;23;20176;-88
2022/05/10 01:52:21;;;;;;;18.25;9.85;;;;;;;;;;6210440;23;20154;-88
2022/05/10 01:55:29;;;;;;;18.85;9.85;;;;;;;;;;6211864;23;20531;-86
2022/05/10 01:58:35;;;;;;;13.73;9.40;;;;;;;;;;6229911;23;20171;-88
2022/05/10 02:01:44;;;;;;;15.38;10.25;;;;;;;;;;6228615;23;20215;-88
2022/05/10 02:04:50;;;;;;;16.30;9.90;;;;;;;;;;6216336;23;20164;-89
2022/05/10 02:07:57;;;;;;;17.50;9.45;;;;;;;;;;6228120;23;20167;-87
2022/05/10 02:11:07;;;;;;;16.38;9.18;;;;;;;;;;6227815;23;20243;-87
2022/05/10 02:14:16;;;;;;;14.00;8.85;;;;;;;;;;6229078;23;20219;-86
2022/05/10 02:17:26;;;;;;;18.73;9.30;;;;;;;;;;6229623;23;20166;-87
2022/05/10 02:20:35;;;;;;;17.88;8.63;;;;;;;;;;6229126;23;20167;-87
2022/05/10 02:23:44;;;;;;;16.38;8.50;;;;;;;;;;6228471;23;20178;-89
2022/05/10 02:26:52;;;;;;;12.80;8.23;;;;;;;;;;6228191;23;20168;-88
2022/05/10 02:30:01;;;;;;;15.52;8.48;;;;;;;;;;6211000;23;20216;-88
2022/05/10 02:33:09;;;;;;;14.77;8.13;;;;;;;;;;6229213;23;20243;-87
2022/05/10 02:36:14;;;;;;;12.45;8.50;;;;;;;;;;6227275;23;20167;-88
2022/05/10 02:39:19;;;;;;;14.68;8.77;;;;;;;;;;6228294;23;20151;-85
2022/05/10 02:42:25;;;;;;;15.55;9.13;;;;;;;;;;6227960;23;20195;-88
2022/05/10 02:45:30;;;;;;;15.63;10.15;;;;;;;;;;6227634;23;20167;-88
2022/05/10 02:48:37;;;;;;;19.92;10.32;;;;;;;;;;6210789;23;20189;-89
2022/05/10 02:51:42;;;;;;;20.38;10.13;;;;;;;;;;6211123;23;20171;-88
2022/05/10 02:54:47;;;;;;;18.83;10.93;;;;;;;;;;6209291;23;20483;-88
2022/05/10 02:57:54;;;;;;;19.88;10.77;;;;;;;;;;6211545;23;20220;-88
2022/05/10 03:01:03;;;;;;;19.52;10.02;;;;;;;;;;6209566;23;20167;-88
2022/05/10 03:04:10;;;;;;;18.23;10.07;;;;;;;;;;6227670;23;20194;-87
2022/05/10 03:07:16;;;;;;;14.45;9.80;;;;;;;;;;6210811;23;20211;-88
2022/05/10 03:10:22;;;;;;;22.10;9.98;;;;;;;;;;6209160;23;20215;-88
2022/05/10 03:13:27;;;;;;;15.70;9.30;;;;;;;;;;6230631;23;20159;-87
2022/05/10 03:16:32;;;;;;;18.52;10.35;;;;;;;;;;6210519;23;20707;-88
2022/05/10 03:19:39;;;;;;;21.70;10.50;;;;;;;;;;6211366;23;20602;-88
2022/05/10 03:22:44;;;;;;;16.92;9.93;;;;;;;;;;6210330;23;20234;-88
2022/05/10 03:25:49;;;;;;;13.80;9.63;;;;;;;;;;6227672;23;20171;-88
2022/05/10 03:28:55;;;;;;;23.70;10.02;;;;;;;;;;6227946;23;20155;-89
2022/05/10 03:32:01;;;;;;;23.77;10.48;;;;;;;;;;6210279;23;20170;-87
2022/05/10 03:35:07;;;;;;;16.67;9.80;;;;;;;;;;6208707;23;20202;-88
2022/05/10 03:38:13;;;;;;;15.55;10.10;;;;;;;;;;6228039;23;20171;-88
2022/05/10 03:41:17;;;;;;;19.38;10.32;;;;;;;;;;6209470;23;20503;-87
2022/05/10 03:44:22;;;;;;;17.02;10.68;;;;;;;;;;6210555;23;20240;-89
2022/05/10 03:47:30;;;;;;;21.45;11.25;;;;;;;;;;6210417;23;20190;-90
2022/05/10 03:50:41;;;;;;;19.13;10.60;;;;;;;;;;6210696;23;20499;-89
2022/05/10 03:53:46;;;;;;;20.05;10.48;;;;;;;;;;6210752;23;20175;-89
2022/05/10 03:56:51;;;;;;;19.80;10.35;;;;;;;;;;6210334;23;20294;-86
2022/05/10 03:59:56;;;;;;;22.92;11.32;;;;;;;;;;6227473;23;20167;-86
2022/05/10 04:03:03;;;;;;;25.63;11.52;;;;;;;;;;6211023;23;20260;-87
2022/05/10 04:06:11;;;;;;;25.17;11.80;;;;;;;;;;6210843;23;20525;-87
2022/05/10 04:09:16;;;;;;;18.80;11.15;;;;;;;;;;6210267;23;20182;-88
2022/05/10 04:12:21;;;;;;;17.23;11.65;;;;;;;;;;6210598;23;20170;-87
2022/05/10 04:15:27;;;;;;;24.42;12.98;;;;;;;;;;6210139;23;20167;-88
2022/05/10 04:18:32;;;;;;;32.05;12.23;;;;;;;;;;6212745;23;20167;-89
2022/05/10 04:21:38;;;;;;;27.55;13.25;;;;;;;;;;6211778;23;20171;-89
2022/05/10 04:24:43;;;;;;;29.35;11.68;;;;;;;;;;6210856;23;20211;-87
2022/05/10 04:27:50;;;;;;;22.48;11.77;;;;;;;;;;6212247;23;20170;-89
2022/05/10 04:30:55;;;;;;;18.90;11.63;;;;;;;;;;6209983;23;20167;-87
2022/05/10 04:34:01;;;;;;;23.98;11.88;;;;;;;;;;6213239;23;20218;-88
2022/05/10 04:37:07;;;;;;;19.92;11.02;;;;;;;;;;6211166;23;20208;-87
2022/05/10 04:43:38;;;;;;;19.83;11.98;;;;;;;;;;6211146;23;20238;-88
2022/05/10 04:46:44;;;;;;;27.90;12.75;;;;;;;;;;6211153;23;20182;-89
2022/05/10 04:49:49;;;;;;;20.75;12.32;;;;;;;;;;6212114;23;20171;-91
2022/05/10 04:53:00;;;;;;;21.85;12.57;;;;;;;;;;6214541;23;20515;-89
2022/05/10 04:56:06;;;;;;;21.75;12.15;;;;;;;;;;6212109;23;20171;-88
2022/05/10 04:59:11;;;;;;;21.10;11.27;;;;;;;;;;6212941;23;20190;-89
2022/05/10 05:02:16;;;;;;;20.58;10.55;;;;;;;;;;6214675;23;20154;-88
2022/05/10 05:05:21;;;;;;;24.00;11.20;;;;;;;;;;6216518;23;20170;-89
2022/05/10 05:08:27;;;;;;;19.27;10.70;;;;;;;;;;6231404;23;20496;-89
2022/05/10 05:11:33;;;;;;;18.08;11.18;;;;;;;;;;6213729;23;20182;-88
2022/05/10 05:14:41;;;;;;;19.92;11.32;;;;;;;;;;6233205;23;20173;-88
2022/05/10 05:17:47;;;;;;;16.67;10.65;;;;;;;;;;6214830;23;20270;-88
2022/05/10 05:20:52;;;;;;;19.30;11.68;;;;;;;;;;6213717;23;20163;-87
2022/05/10 05:23:59;;;;;;;31.27;12.27;;;;;;;;;;6215990;23;20222;-89
2022/05/10 05:27:05;;;;;;;20.58;11.48;;;;;;;;;;6215306;23;20500;-88
2022/05/10 05:30:13;;;;;;;19.98;11.43;;;;;;;;;;6215193;23;20172;-88
2022/05/10 05:33:19;;;;;;;20.80;12.15;;;;;;;;;;6212965;23;20195;-87
2022/05/10 05:36:24;;;;;;;18.05;11.40;;;;;;;;;;6212728;23;20159;-88
2022/05/10 05:39:31;;;;;;;18.75;11.27;;;;;;;;;;6219667;23;20162;-88
2022/05/10 05:42:37;;;;;;;20.98;10.45;;;;;;;;;;6215503;23;20167;-88
2022/05/10 05:45:44;;;;;;;23.95;11.32;;;;;;;;;;6217356;23;20166;-89
2022/05/10 05:48:49;;;;;;;17.80;11.30;;;;;;;;;;6203424;23;20167;-89
